Time;durP1;ratioP1;P1;durP2;ratioP2;P2;SDS_P1;SDS_P2;PMS_P1;PMS_P2;Temp;Humidity;BMP_temperature;BMP_pressure;BME280_temperature;BME280_humidity;BME280_pressure;Samples;Min_cycle;Max_cycle;Signal;HPM_P1;HPM_P2
2022/07/19 00:02:07;;;;;;;5.22;3.38;;;;;;;20.70;58.88;95359.56;4953830;28;20209;-78
2022/07/19 00:04:34;;;;;;;6.13;3.55;;;;;;;20.65;59.13;95349.81;4952386;28;20220;-79
2022/07/19 00:07:02;;;;;;;5.88;3.78;;;;;;;20.67;59.41;95347.69;4955189;28;20717;-78
2022/07/19 00:09:29;;;;;;;7.40;3.80;;;;;;;20.69;59.58;95352.72;4951846;28;20297;-79
2022/07/19 00:11:56;;;;;;;7.35;3.63;;;;;;;20.68;59.96;95349.28;4959875;28;20233;-78
2022/07/19 00:14:25;;;;;;;5.45;3.72;;;;;;;20.61;60.30;95351.38;4954110;28;20216;-78
2022/07/19 00:16:53;;;;;;;7.55;4.35;;;;;;;20.64;60.13;95353.50;4951486;28;20240;-78
2022/07/19 00:19:20;;;;;;;5.72;4.35;;;;;;;20.69;60.47;95358.78;4954942;28;20224;-79
2022/07/19 00:21:47;;;;;;;6.53;4.45;;;;;;;20.73;60.30;95353.75;4953007;28;20225;-77
2022/07/19 00:24:14;;;;;;;6.85;4.57;;;;;;;20.77;60.17;95349.56;4953206;28;20229;-76
2022/07/19 00:26:40;;;;;;;6.63;4.28;;;;;;;20.80;60.21;95357.75;4952567;28;20607;-78
2022/07/19 00:29:07;;;;;;;8.23;4.13;;;;;;;20.77;60.09;95358.28;4953790;28;20212;-75
2022/07/19 00:31:34;;;;;;;7.20;4.15;;;;;;;20.76;60.26;95354.03;4955276;28;20291;-75
2022/07/19 00:34:03;;;;;;;5.75;4.20;;;;;;;20.78;60.57;95353.75;4956037;28;20210;-75
2022/07/19 00:36:29;;;;;;;9.15;4.40;;;;;;;20.67;61.06;95346.88;4952928;28;21181;-76
2022/07/19 00:38:57;;;;;;;6.72;3.58;;;;;;;20.68;61.26;95351.13;4954364;28;20205;-77
2022/07/19 00:41:23;;;;;;;6.13;3.67;;;;;;;20.69;61.46;95356.13;4955179;28;20248;-77
2022/07/19 00:43:51;;;;;;;4.22;3.13;;;;;;;20.61;61.92;95351.38;4953554;28;20205;-78
2022/07/19 00:46:20;;;;;;;6.10;3.45;;;;;;;20.66;61.79;95355.91;4949722;28;20669;-77
2022/07/19 00:48:49;;;;;;;8.38;3.90;;;;;;;20.64;61.70;95352.69;4951277;28;20213;-77
2022/07/19 00:51:19;;;;;;;6.88;3.50;;;;;;;20.50;62.24;95341.06;4959869;28;20711;-76
2022/07/19 00:53:47;;;;;;;6.60;3.53;;;;;;;20.47;62.40;95350.31;4956500;28;20299;-76
2022/07/19 00:56:14;;;;;;;7.50;3.72;;;;;;;20.37;62.95;95359.00;4956999;28;20300;-75
2022/07/19 00:58:42;;;;;;;5.50;3.70;;;;;;;20.36;63.18;95357.44;4952816;28;20322;-75
2022/07/19 01:01:10;;;;;;;8.05;3.63;;;;;;;20.36;63.32;95354.00;4952261;28;20233;-76
2022/07/19 01:03:39;;;;;;;8.07;3.67;;;;;;;20.38;63.17;95347.38;4950978;28;20208;-76
2022/07/19 01:06:07;;;;;;;7.32;3.67;;;;;;;20.33;63.26;95355.31;4951396;28;20264;-78
2022/07/19 01:08:36;;;;;;;5.72;3.85;;;;;;;20.33;63.48;95347.38;4952384;28;20465;-76
2022/07/19 01:11:04;;;;;;;5.90;3.35;;;;;;;20.33;63.52;95339.47;4952173;28;20603;-76
2022/07/19 01:13:32;;;;;;;8.25;3.30;;;;;;;20.31;63.47;95344.22;4952479;28;20212;-78
2022/07/19 01:15:58;;;;;;;7.32;3.28;;;;;;;20.30;63.60;95340.00;4956073;28;20327;-78
2022/07/19 01:18:25;;;;;;;3.90;3.28;;;;;;;20.28;63.55;95343.94;4955031;28;20209;-79
2022/07/19 01:20:52;;;;;;;4.57;3.20;;;;;;;20.23;64.01;95347.31;4953730;28;20677;-76
2022/07/19 01:23:20;;;;;;;5.63;3.30;;;;;;;20.22;64.00;95343.13;4951143;28;20818;-76
2022/07/19 01:25:47;;;;;;;4.65;3.47;;;;;;;20.22;64.25;95342.31;4951433;28;20215;-77
2022/07/19 01:28:14;;;;;;;4.50;3.33;;;;;;;20.21;64.87;95344.16;4952349;28;20209;-77
2022/07/19 01:30:41;;;;;;;5.18;3.25;;;;;;;20.26;64.57;95335.47;4951594;28;20209;-77
2022/07/19 01:33:08;;;;;;;5.32;3.22;;;;;;;20.25;64.36;95334.72;4953622;28;20224;-75
2022/07/19 01:35:35;;;;;;;5.93;3.17;;;;;;;20.21;64.96;95338.88;4953931;28;20205;-75
2022/07/19 01:38:01;;;;;;;5.88;2.80;;;;;;;20.13;64.87;95342.03;4953589;28;20213;-76
2022/07/19 01:40:30;;;;;;;5.35;3.10;;;;;;;20.09;65.09;95333.03;4955731;28;20609;-75
2022/07/19 01:42:56;;;;;;;6.22;3.10;;;;;;;20.06;65.34;95332.75;4957695;28;20201;-76
2022/07/19 01:45:23;;;;;;;6.50;3.00;;;;;;;19.99;65.64;95334.88;4951690;28;20201;-75
2022/07/19 01:47:50;;;;;;;6.50;3.05;;;;;;;19.95;65.85;95333.78;4950652;28;20928;-75
2022/07/19 01:50:18;;;;;;;7.45;3.10;;;;;;;19.94;66.22;95326.94;4957659;28;20221;-77
2022/07/19 01:52:45;;;;;;;5.82;2.95;;;;;;;19.85;66.63;95336.41;4958728;28;20209;-77
2022/07/19 01:55:13;;;;;;;8.63;2.90;;;;;;;19.83;66.75;95334.00;4958943;28;20232;-77
2022/07/19 01:57:41;;;;;;;3.92;2.90;;;;;;;19.89;66.51;95332.19;4954318;28;20303;-79
2022/07/19 02:00:08;;;;;;;3.70;2.80;;;;;;;19.88;66.61;95331.41;4953555;28;20205;-75
2022/07/19 02:02:35;;;;;;;7.32;3.28;;;;;;;19.90;66.66;95334.56;4953627;28;20708;-75
2022/07/19 02:05:03;;;;;;;7.40;2.90;;;;;;;19.87;66.36;95326.38;4950405;28;20205;-76
2022/07/19 02:07:29;;;;;;;3.80;2.90;;;;;;;19.83;66.72;95334.81;4951221;28;20224;-76
2022/07/19 02:09:57;;;;;;;5.82;2.90;;;;;;;19.85;66.59;95337.19;4952376;28;20216;-76
2022/07/19 02:12:24;;;;;;;2.97;2.55;;;;;;;19.84;67.14;95335.59;4953246;28;20197;-78
2022/07/19 02:14:52;;;;;;;7.80;2.90;;;;;;;19.83;66.97;95331.38;4955514;28;20217;-76
2022/07/19 02:17:19;;;;;;;4.22;2.78;;;;;;;19.77;67.47;95335.84;4967375;28;20208;-76
2022/07/19 02:19:46;;;;;;;4.07;2.65;;;;;;;19.75;67.24;95335.31;4964166;28;20900;-76
2022/07/19 02:22:13;;;;;;;5.15;3.13;;;;;;;19.78;67.30;95331.34;4949772;28;20267;-76
2022/07/19 02:24:42;;;;;;;4.18;3.10;;;;;;;19.78;67.60;95334.00;4952257;28;20212;-77
2022/07/19 02:27:10;;;;;;;7.97;3.03;;;;;;;19.79;67.29;95341.66;4953620;28;20294;-77
2022/07/19 02:29:36;;;;;;;7.35;3.42;;;;;;;19.77;67.14;95346.38;4958571;28;20586;-78
2022/07/19 02:32:05;;;;;;;3.90;3.10;;;;;;;19.77;67.03;95348.22;4955438;28;20711;-78
2022/07/19 02:34:32;;;;;;;4.13;2.90;;;;;;;19.76;67.35;95344.03;4956577;28;20224;-78
2022/07/19 02:36:59;;;;;;;4.20;2.92;;;;;;;19.64;67.64;95332.88;4955965;28;20216;-79
2022/07/19 02:39:26;;;;;;;4.25;2.90;;;;;;;19.69;67.73;95341.63;4952794;28;20304;-80
2022/07/19 02:41:53;;;;;;;5.20;2.85;;;;;;;19.66;67.60;95344.75;4956002;28;20281;-77
2022/07/19 02:44:19;;;;;;;3.50;2.83;;;;;;;19.68;67.90;95347.16;4955498;28;20592;-78
2022/07/19 02:46:46;;;;;;;6.28;3.00;;;;;;;19.59;68.21;95344.22;4956894;28;20209;-78
2022/07/19 02:49:15;;;;;;;3.88;2.90;;;;;;;19.59;67.87;95340.78;4957055;28;20209;-78
2022/07/19 02:51:42;;;;;;;6.38;2.65;;;;;;;19.58;68.11;95350.53;4958180;28;20300;-80
2022/07/19 02:54:09;;;;;;;4.55;2.85;;;;;;;19.57;68.17;95350.78;4954046;28;20213;-77
2022/07/19 02:56:37;;;;;;;3.10;2.80;;;;;;;19.56;68.18;95360.56;4951516;28;20662;-76
2022/07/19 02:59:04;;;;;;;7.30;3.40;;;;;;;19.55;68.47;95356.31;4957121;28;20651;-76
2022/07/19 03:01:31;;;;;;;6.35;2.88;;;;;;;19.55;68.38;95358.97;4958856;28;20224;-77
2022/07/19 03:03:58;;;;;;;7.13;2.88;;;;;;;19.52;68.45;95361.31;4957107;28;20224;-77
2022/07/19 03:06:26;;;;;;;6.72;3.00;;;;;;;19.53;68.36;95357.63;4950440;28;20292;-78
2022/07/19 03:08:53;;;;;;;5.60;3.08;;;;;;;19.55;68.34;95364.22;4953993;28;20249;-77
2022/07/19 03:11:20;;;;;;;6.30;3.08;;;;;;;19.53;68.12;95353.16;4956691;28;20206;-78
2022/07/19 03:13:47;;;;;;;4.53;2.90;;;;;;;19.53;67.91;95361.06;4953971;28;20209;-78
2022/07/19 03:16:14;;;;;;;6.43;3.45;;;;;;;19.50;68.33;95360.78;4953636;28;20249;-77
2022/07/19 03:18:41;;;;;;;7.20;3.25;;;;;;;19.44;68.83;95367.88;4953559;28;20221;-78
2022/07/19 03:21:07;;;;;;;8.35;3.00;;;;;;;19.41;68.73;95363.09;4955429;28;20235;-77
2022/07/19 03:23:37;;;;;;;6.70;3.00;;;;;;;19.43;68.77;95368.91;4956741;28;20208;-76
2022/07/19 03:26:05;;;;;;;9.68;3.28;;;;;;;19.35;69.16;95361.44;4951686;28;20683;-76
2022/07/19 03:28:32;;;;;;;5.72;3.13;;;;;;;19.45;68.79;95381.84;4957756;28;20201;-76
2022/07/19 03:30:59;;;;;;;6.32;3.70;;;;;;;19.38;69.23;95379.41;4956009;28;20214;-76
2022/07/19 03:33:26;;;;;;;6.30;3.40;;;;;;;19.41;69.18;95378.13;4956910;28;20225;-74
2022/07/19 03:35:53;;;;;;;6.90;3.28;;;;;;;19.37;68.81;95382.28;4955203;28;20670;-75
2022/07/19 03:38:19;;;;;;;6.68;3.22;;;;;;;19.34;69.18;95383.59;4957431;28;20665;-74
2022/07/19 03:40:48;;;;;;;4.43;3.30;;;;;;;19.36;69.38;95384.13;4957394;28;20209;-75
2022/07/19 03:43:15;;;;;;;4.88;2.92;;;;;;;19.41;69.39;95386.84;4956301;28;20209;-75
2022/07/19 03:45:42;;;;;;;5.28;3.20;;;;;;;19.44;69.21;95396.88;4951900;28;20217;-75
2022/07/19 03:48:09;;;;;;;10.82;3.40;;;;;;;19.46;69.25;95397.41;4953851;28;20218;-75
2022/07/19 03:50:37;;;;;;;5.68;3.30;;;;;;;19.45;69.31;95395.03;4955143;28;20246;-74
2022/07/19 03:53:05;;;;;;;6.22;3.22;;;;;;;19.34;69.87;95388.84;4957425;28;20204;-75
2022/07/19 03:55:32;;;;;;;5.97;3.47;;;;;;;19.38;69.61;95389.94;4954578;28;20212;-75
2022/07/19 03:58:00;;;;;;;7.68;3.53;;;;;;;19.40;69.21;95392.34;4955718;28;20220;-74
2022/07/19 04:00:27;;;;;;;14.32;3.58;;;;;;;19.40;69.50;95405.53;4954972;28;20204;-75
2022/07/19 04:02:55;;;;;;;7.05;3.80;;;;;;;19.41;69.39;95401.84;4956366;28;20231;-74
2022/07/19 04:05:22;;;;;;;9.75;4.00;;;;;;;19.29;69.67;95394.09;4955204;28;20665;-75
2022/07/19 04:07:49;;;;;;;4.82;3.63;;;;;;;19.37;68.99;95403.38;4953242;28;20209;-74
2022/07/19 04:10:15;;;;;;;4.28;3.60;;;;;;;19.46;68.60;95405.31;4955980;28;20216;-75
2022/07/19 04:12:42;;;;;;;6.20;3.45;;;;;;;19.51;68.83;95410.63;4956194;28;20265;-75
2022/07/19 04:15:11;;;;;;;6.47;3.72;;;;;;;19.56;68.62;95404.59;4953203;28;20241;-74
2022/07/19 04:17:38;;;;;;;5.93;3.33;;;;;;;19.51;68.40;95405.34;4952307;28;20208;-74
2022/07/19 04:20:06;;;;;;;10.68;3.80;;;;;;;19.53;68.98;95410.38;4948842;28;20616;-76
2022/07/19 04:22:33;;;;;;;7.70;3.75;;;;;;;19.55;69.19;95403.00;4952382;28;20228;-75
2022/07/19 04:25:01;;;;;;;7.80;3.53;;;;;;;19.53;69.54;95413.81;4956330;28;20317;-74
2022/07/19 04:27:29;;;;;;;8.98;4.05;;;;;;;19.40;69.96;95408.16;4956538;28;20208;-75
2022/07/19 04:29:56;;;;;;;7.10;3.70;;;;;;;19.40;70.87;95403.69;4957116;28;20209;-75
2022/07/19 04:32:24;;;;;;;5.28;3.67;;;;;;;19.37;71.08;95400.72;4953696;28;20810;-75
2022/07/19 04:34:51;;;;;;;5.47;3.70;;;;;;;19.52;71.08;95409.56;4954539;28;20208;-75
2022/07/19 04:37:18;;;;;;;6.80;3.38;;;;;;;19.62;70.22;95411.50;4955458;28;20209;-74
2022/07/19 04:39:44;;;;;;;6.18;3.55;;;;;;;19.66;69.99;95409.91;4952032;28;20212;-74
2022/07/19 04:42:11;;;;;;;4.43;3.33;;;;;;;19.68;69.74;95408.59;4952219;28;20951;-74
2022/07/19 04:44:38;;;;;;;6.25;3.15;;;;;;;19.71;69.24;95410.72;4952601;28;20806;-74
2022/07/19 04:47:05;;;;;;;5.95;3.30;;;;;;;19.69;69.51;95412.03;4954647;28;20681;-74
2022/07/19 04:49:33;;;;;;;4.85;3.60;;;;;;;19.67;70.27;95420.22;4951460;28;20284;-74
2022/07/19 04:52:00;;;;;;;5.72;3.30;;;;;;;19.65;70.89;95414.38;4956030;28;20205;-74
2022/07/19 04:54:27;;;;;;;7.20;3.30;;;;;;;19.73;70.63;95419.19;4956906;28;20205;-75
2022/07/19 04:56:54;;;;;;;5.75;3.50;;;;;;;19.50;71.34;95414.31;4953823;28;20210;-75
2022/07/19 04:59:21;;;;;;;4.20;3.30;;;;;;;19.54;71.45;95411.94;4952321;28;20217;-75
2022/07/19 05:01:47;;;;;;;9.15;3.45;;;;;;;19.65;70.96;95417.03;4955468;28;20251;-75
2022/07/19 05:04:14;;;;;;;6.05;3.50;;;;;;;19.69;70.94;95418.09;4953268;28;20212;-80
2022/07/19 05:06:44;;;;;;;11.93;4.18;;;;;;;19.74;70.99;95417.34;4955115;28;20221;-79
2022/07/19 05:09:11;;;;;;;7.47;3.83;;;;;;;19.75;69.90;95406.53;4955477;28;20201;-75
2022/07/19 05:11:38;;;;;;;7.05;3.90;;;;;;;19.85;69.72;95416.34;4951143;28;20693;-75
2022/07/19 05:14:05;;;;;;;8.13;3.85;;;;;;;19.91;70.28;95415.34;4951430;28;20209;-75
2022/07/19 05:16:32;;;;;;;12.68;4.15;;;;;;;19.95;69.69;95413.75;4950746;28;20220;-75
2022/07/19 05:18:59;;;;;;;7.03;4.20;;;;;;;19.80;69.94;95417.09;4951041;28;20267;-75
2022/07/19 05:21:25;;;;;;;8.60;4.10;;;;;;;19.83;69.75;95412.41;4947844;28;20248;-75
2022/07/19 05:23:54;;;;;;;7.45;3.97;;;;;;;19.74;69.52;95414.69;4954244;28;20222;-75
2022/07/19 05:26:20;;;;;;;13.38;3.95;;;;;;;19.78;69.81;95416.59;4952104;28;20205;-75
2022/07/19 05:28:47;;;;;;;6.80;4.28;;;;;;;19.89;68.96;95414.78;4950938;28;20197;-75
2022/07/19 05:31:14;;;;;;;8.00;4.50;;;;;;;19.94;69.36;95419.31;4950711;28;20197;-75
2022/07/19 05:33:42;;;;;;;7.38;4.10;;;;;;;19.98;69.08;95415.88;4954814;28;20210;-77
2022/07/19 05:36:10;;;;;;;9.10;3.70;;;;;;;19.90;69.05;95418.22;4953962;28;20205;-77
2022/07/19 05:38:38;;;;;;;8.15;3.90;;;;;;;19.78;69.27;95424.50;4951105;28;20237;-79
2022/07/19 05:41:07;;;;;;;9.85;4.10;;;;;;;19.78;69.17;95421.06;4954236;28;20201;-82
2022/07/19 05:43:35;;;;;;;9.73;3.80;;;;;;;19.67;70.14;95428.13;4959035;28;20233;-82
2022/07/19 05:46:02;;;;;;;10.48;3.50;;;;;;;19.68;70.48;95423.66;4957607;28;20203;-76
2022/07/19 05:48:29;;;;;;;8.07;3.45;;;;;;;19.60;70.66;95424.13;4952483;28;20212;-76
2022/07/19 05:50:56;;;;;;;7.88;3.38;;;;;;;19.68;70.31;95426.28;4956039;28;20205;-76
2022/07/19 05:53:23;;;;;;;6.55;3.80;;;;;;;19.81;70.05;95420.56;4952256;28;20208;-76
2022/07/19 05:55:50;;;;;;;6.88;3.60;;;;;;;19.88;68.85;95420.31;4952697;28;20213;-75
2022/07/19 05:58:18;;;;;;;11.05;4.13;;;;;;;19.99;68.20;95419.31;4957733;28;20205;-75
2022/07/19 06:01:17;;;;;;;6.28;3.58;;;;;;;20.06;68.40;95415.38;4954893;28;20232;-76
2022/07/19 06:03:33;;;;;;;12.32;4.00;;;;;;;20.18;68.18;95415.97;4953145;28;20242;-76
2022/07/19 06:05:59;;;;;;;4.25;3.53;;;;;;;20.21;68.09;95417.28;4952756;28;20204;-75
2022/07/19 06:08:26;;;;;;;6.90;3.42;;;;;;;20.31;67.78;95415.53;4947678;28;20216;-75
2022/07/19 06:10:54;;;;;;;7.95;3.88;;;;;;;20.35;66.87;95416.56;4950194;28;20209;-75
2022/07/19 06:13:22;;;;;;;9.32;3.80;;;;;;;20.38;66.34;95416.06;4955273;28;20571;-75
2022/07/19 06:15:50;;;;;;;7.97;4.07;;;;;;;20.45;66.35;95417.66;4953494;28;20750;-76
2022/07/19 06:18:17;;;;;;;10.48;3.97;;;;;;;20.47;66.06;95418.97;4952983;28;20280;-76
2022/07/19 06:20:44;;;;;;;7.40;4.20;;;;;;;20.55;65.71;95415.81;4952690;28;20220;-76
2022/07/19 06:23:11;;;;;;;8.60;3.95;;;;;;;20.58;65.79;95417.16;4953894;28;20240;-76
2022/07/19 06:25:38;;;;;;;8.27;4.50;;;;;;;20.60;65.66;95415.84;4953940;28;20201;-82
2022/07/19 06:28:05;;;;;;;8.63;4.07;;;;;;;20.68;65.64;95407.41;4950393;28;20205;-78
2022/07/19 06:30:33;;;;;;;10.95;4.22;;;;;;;20.80;66.50;95405.31;4955801;28;20231;-74
2022/07/19 06:33:00;;;;;;;6.97;3.88;;;;;;;20.85;65.24;95402.69;4951346;28;20284;-74
2022/07/19 06:35:27;;;;;;;8.60;4.35;;;;;;;20.89;64.25;95400.31;4965605;28;20208;-73
2022/07/19 06:37:54;;;;;;;7.35;3.63;;;;;;;21.07;64.04;95405.03;4966801;28;20209;-74
2022/07/19 06:40:21;;;;;;;9.68;3.55;;;;;;;21.11;64.55;95398.22;4970752;28;20208;-73
2022/07/19 06:42:48;;;;;;;10.88;3.58;;;;;;;21.10;62.55;95401.91;4970875;28;20228;-73
2022/07/19 06:45:18;;;;;;;11.73;3.63;;;;;;;21.13;62.40;95397.94;4963183;28;20212;-73
2022/07/19 06:47:46;;;;;;;6.80;4.03;;;;;;;21.25;62.10;95396.63;4966358;28;20208;-73
2022/07/19 06:50:13;;;;;;;9.10;4.32;;;;;;;21.31;63.06;95395.56;4970655;28;20209;-74
2022/07/19 06:52:40;;;;;;;12.10;3.90;;;;;;;21.40;63.56;95407.19;4964328;28;20667;-74
2022/07/19 06:55:07;;;;;;;9.32;3.97;;;;;;;21.56;61.91;95396.59;4970507;28;20701;-74
2022/07/19 06:57:34;;;;;;;4.15;3.30;;;;;;;21.60;61.64;95397.63;4958445;28;20205;-74
2022/07/19 07:00:01;;;;;;;10.40;3.60;;;;;;;21.67;61.28;95395.50;4952318;28;20720;-75
2022/07/19 07:02:28;;;;;;;9.80;3.60;;;;;;;21.81;63.28;95396.50;4969538;28;20952;-76
2022/07/19 07:04:56;;;;;;;7.70;3.63;;;;;;;22.11;61.30;95396.41;4969972;28;20236;-73
2022/07/19 07:07:22;;;;;;;9.68;3.10;;;;;;;22.33;61.18;95399.50;4969911;28;20216;-73
2022/07/19 07:09:49;;;;;;;6.05;3.40;;;;;;;22.49;58.43;95393.06;4964090;28;20279;-73
2022/07/19 07:12:16;;;;;;;9.57;3.67;;;;;;;22.65;58.85;95398.31;4970515;28;20209;-85
2022/07/19 07:14:43;;;;;;;9.20;3.40;;;;;;;22.76;58.30;95397.16;4964640;28;20957;-73
2022/07/19 07:17:10;;;;;;;4.25;3.03;;;;;;;22.76;56.14;95391.88;4954528;28;20210;-70
2022/07/19 07:19:36;;;;;;;7.90;3.70;;;;;;;22.80;55.97;95392.91;4968548;28;20256;-83
2022/07/19 07:22:05;;;;;;;10.50;3.80;;;;;;;22.86;57.74;95395.22;4957080;28;20225;-74
2022/07/19 07:24:31;;;;;;;6.97;3.05;;;;;;;22.96;55.62;95389.88;4955128;28;20209;-74
2022/07/19 07:26:58;;;;;;;7.82;3.30;;;;;;;23.01;52.64;95395.13;4954414;28;20209;-74
2022/07/19 07:29:26;;;;;;;6.28;3.15;;;;;;;23.12;53.35;95393.16;4954429;28;20212;-73
2022/07/19 07:31:53;;;;;;;5.82;2.90;;;;;;;23.17;53.92;95391.25;4968163;28;20656;-74
2022/07/19 07:34:22;;;;;;;7.68;2.97;;;;;;;23.36;53.15;95385.28;4973986;28;20217;-74
2022/07/19 07:36:49;;;;;;;8.85;3.08;;;;;;;23.45;52.63;95387.06;4973838;28;20209;-74
2022/07/19 07:39:18;;;;;;;4.28;2.97;;;;;;;23.70;51.84;95391.31;4966963;28;20263;-74
2022/07/19 07:41:44;;;;;;;8.75;3.17;;;;;;;23.78;50.20;95390.69;4960982;28;20201;-78
2022/07/19 07:44:11;;;;;;;9.13;3.30;;;;;;;23.88;50.49;95390.59;4961347;28;20225;-77
2022/07/19 07:46:38;;;;;;;6.63;3.40;;;;;;;23.96;48.37;95383.88;4954249;28;20582;-78
2022/07/19 07:49:05;;;;;;;5.05;3.10;;;;;;;23.91;46.57;95383.94;4954045;28;20209;-77
2022/07/19 07:51:32;;;;;;;5.10;3.00;;;;;;;24.08;48.44;95389.56;4954270;28;20708;-77
2022/07/19 07:54:00;;;;;;;5.72;2.78;;;;;;;24.23;46.75;95386.78;4954223;29;20209;-74
2022/07/19 07:56:28;;;;;;;5.93;2.85;;;;;;;24.31;46.09;95391.44;4954242;29;20241;-74
2022/07/19 07:58:55;;;;;;;12.30;3.50;;;;;;;24.43;44.90;95389.16;4954381;28;20209;-76
2022/07/19 08:01:22;;;;;;;6.05;3.15;;;;;;;24.45;43.83;95383.53;4967257;28;20205;-73
2022/07/19 08:03:48;;;;;;;6.50;2.75;;;;;;;24.51;44.14;95390.38;4965840;28;20228;-74
2022/07/19 08:06:16;;;;;;;3.35;2.92;;;;;;;24.60;43.97;95384.13;4969012;28;20637;-74
2022/07/19 08:08:43;;;;;;;4.57;2.63;;;;;;;24.62;42.05;95383.84;4972643;28;20208;-74
2022/07/19 08:11:10;;;;;;;4.43;2.85;;;;;;;24.63;43.47;95391.53;4966306;28;20664;-74
2022/07/19 08:13:38;;;;;;;9.57;2.80;;;;;;;24.64;42.51;95376.38;4968222;28;20212;-74
2022/07/19 08:16:06;;;;;;;3.80;2.65;;;;;;;24.72;43.36;95386.38;4971773;28;20735;-74
2022/07/19 08:18:33;;;;;;;2.90;2.33;;;;;;;24.84;42.60;95392.06;4972703;28;20216;-74
2022/07/19 08:20:59;;;;;;;3.25;2.60;;;;;;;24.99;42.31;95388.38;4964704;28;20664;-74
2022/07/19 08:23:26;;;;;;;4.85;2.70;;;;;;;25.02;40.79;95377.16;4958447;28;20225;-74
2022/07/19 08:25:53;;;;;;;4.80;2.58;;;;;;;25.06;41.89;95373.63;4966352;28;20204;-74
2022/07/19 08:28:20;;;;;;;4.88;2.70;;;;;;;25.05;41.69;95382.66;4966168;28;20231;-74
2022/07/19 08:30:48;;;;;;;6.75;2.50;;;;;;;25.10;41.41;95379.94;4972676;28;20208;-74
2022/07/19 08:33:15;;;;;;;3.05;2.75;;;;;;;25.11;40.06;95376.19;4969958;28;20646;-74
2022/07/19 08:35:42;;;;;;;4.78;3.00;;;;;;;25.05;39.89;95380.00;4970314;28;20272;-74
2022/07/19 08:38:09;;;;;;;5.65;2.50;;;;;;;25.18;41.17;95373.97;4972809;28;20204;-75
2022/07/19 08:40:39;;;;;;;3.58;2.40;;;;;;;25.23;38.01;95376.53;4968223;28;20205;-74
2022/07/19 08:43:06;;;;;;;3.90;2.80;;;;;;;25.10;37.99;95369.31;4970900;28;20235;-73
2022/07/19 08:45:34;;;;;;;6.88;2.80;;;;;;;25.16;40.63;95372.69;4961416;28;20665;-73
2022/07/19 08:48:02;;;;;;;2.80;2.47;;;;;;;25.23;40.09;95363.22;4953525;28;20206;-73
2022/07/19 08:50:30;;;;;;;3.80;2.58;;;;;;;25.42;39.21;95368.50;4953078;28;20209;-72
2022/07/19 08:52:59;;;;;;;3.50;2.50;;;;;;;25.53;39.95;95364.59;4960349;28;20267;-72
2022/07/19 08:55:26;;;;;;;3.33;2.47;;;;;;;25.46;37.24;95366.03;4970337;28;20213;-76
2022/07/19 08:57:58;;;;;;;8.02;3.00;;;;;;;25.36;38.17;95362.47;4972512;28;20279;-73
2022/07/19 09:00:26;;;;;;;7.32;2.88;;;;;;;25.36;39.11;95359.81;4967885;28;20213;-73
2022/07/19 09:02:54;;;;;;;3.38;2.60;;;;;;;25.45;39.59;95359.13;4966153;28;20225;-73
2022/07/19 09:05:23;;;;;;;3.35;2.40;;;;;;;25.56;39.54;95372.00;4970839;28;20655;-73
2022/07/19 09:08:09;;;;;;;7.28;3.10;;;;;;;25.61;37.79;95361.25;4966426;28;20201;-78
2022/07/19 09:10:38;;;;;;;3.05;2.38;;;;;;;25.67;38.91;95365.41;4972242;28;20212;-74
2022/07/19 09:13:07;;;;;;;4.63;2.60;;;;;;;25.78;38.69;95361.44;4971330;28;20200;-74
2022/07/19 09:15:43;;;;;;;6.65;2.67;;;;;;;25.80;37.78;95350.50;4959208;28;20225;-74
2022/07/19 09:18:12;;;;;;;4.80;2.40;;;;;;;25.85;38.81;95361.88;4954849;28;20702;-73
2022/07/19 09:20:41;;;;;;;5.00;2.55;;;;;;;25.85;36.93;95358.41;4969258;28;20223;-73
2022/07/19 09:23:08;;;;;;;3.60;2.50;;;;;;;25.78;35.86;95352.66;4956420;28;21217;-74
2022/07/19 09:25:37;;;;;;;4.90;2.67;;;;;;;25.70;36.68;95356.03;4959370;28;20205;-75
2022/07/19 09:28:05;;;;;;;5.03;2.80;;;;;;;25.73;38.50;95353.56;4958904;28;20215;-74
2022/07/19 09:30:38;;;;;;;4.07;2.60;;;;;;;25.88;38.62;95353.28;4961707;28;20263;-74
2022/07/19 09:33:13;;;;;;;4.90;2.40;;;;;;;26.06;38.41;95345.47;4955688;28;20652;-78
2022/07/19 09:35:43;;;;;;;4.10;2.70;;;;;;;26.19;37.53;95339.34;4969773;28;20207;-76
2022/07/19 09:38:25;;;;;;;3.25;2.45;;;;;;;26.32;37.09;95346.53;4971235;28;20216;-73
2022/07/19 09:40:55;;;;;;;5.40;2.72;;;;;;;26.36;36.96;95348.31;4971901;28;20205;-72
2022/07/19 09:43:25;;;;;;;8.57;3.00;;;;;;;26.46;37.27;95349.97;4959347;28;20232;-72
2022/07/19 09:45:52;;;;;;;7.57;2.80;;;;;;;26.46;36.50;95341.97;4955501;28;20205;-75
2022/07/19 09:48:20;;;;;;;3.28;2.75;;;;;;;26.50;35.99;95345.59;4959288;28;20209;-74
2022/07/19 09:50:51;;;;;;;6.80;2.95;;;;;;;26.57;35.73;95348.66;4971445;28;20209;-73
2022/07/19 09:53:20;;;;;;;2.58;2.38;;;;;;;26.63;36.44;95330.66;4971391;28;20208;-74
2022/07/19 09:55:48;;;;;;;6.90;2.47;;;;;;;26.76;36.31;95335.91;4971202;28;20212;-72
2022/07/19 09:58:17;;;;;;;3.00;2.58;;;;;;;26.88;37.30;95336.19;4965566;28;20209;-73
2022/07/19 10:00:44;;;;;;;5.75;2.65;;;;;;;26.97;36.03;95336.25;4971474;28;20204;-73
2022/07/19 10:03:12;;;;;;;2.85;2.58;;;;;;;27.15;35.69;95335.28;4971602;28;20296;-73
2022/07/19 10:05:40;;;;;;;10.48;2.88;;;;;;;27.22;35.54;95338.28;4971281;28;20200;-73
2022/07/19 10:08:08;;;;;;;2.63;2.40;;;;;;;27.21;35.71;95336.75;4968450;28;20254;-73
2022/07/19 10:10:35;;;;;;;9.70;2.65;;;;;;;27.20;36.02;95337.03;4971208;28;20733;-73
2022/07/19 10:13:04;;;;;;;5.00;2.40;;;;;;;27.19;35.65;95335.44;4971223;28;20588;-76
2022/07/19 10:15:36;;;;;;;3.15;2.60;;;;;;;27.27;36.25;95338.19;4963735;28;20316;-76
2022/07/19 10:18:24;;;;;;;5.63;3.20;;;;;;;27.48;35.75;95333.13;4952260;28;20212;-76
2022/07/19 10:20:51;;;;;;;2.90;2.60;;;;;;;27.62;35.58;95333.78;4959939;28;20217;-74
2022/07/19 10:23:27;;;;;;;3.78;2.67;;;;;;;27.63;35.54;95334.59;4971529;28;20236;-74
2022/07/19 10:25:54;;;;;;;6.20;2.50;;;;;;;27.85;35.00;95339.88;4953174;28;20251;-79
2022/07/19 10:28:32;;;;;;;3.13;2.60;;;;;;;27.92;35.22;95337.53;4964311;28;20204;-78
2022/07/19 10:31:00;;;;;;;2.80;2.58;;;;;;;27.88;35.03;95340.03;4965140;28;20591;-79
2022/07/19 10:33:31;;;;;;;3.72;2.22;;;;;;;28.01;34.95;95328.44;4958618;28;20269;-79
2022/07/19 10:35:58;;;;;;;3.67;2.70;;;;;;;28.04;33.65;95325.19;4941357;28;20209;-74
2022/07/19 10:38:26;;;;;;;4.30;2.70;;;;;;;28.17;32.91;95323.47;4965123;28;20223;-73
2022/07/19 10:40:58;;;;;;;3.67;2.53;;;;;;;28.12;34.21;95326.28;4951177;28;20217;-73
2022/07/19 10:43:27;;;;;;;4.78;2.60;;;;;;;28.13;35.13;95328.66;4959060;28;20227;-74
2022/07/19 10:46:15;;;;;;;5.03;2.90;;;;;;;28.12;34.54;95329.75;4968191;28;20215;-74
2022/07/19 10:48:42;;;;;;;3.67;2.80;;;;;;;28.17;34.70;95322.69;4967856;28;20660;-74
2022/07/19 10:51:12;;;;;;;3.63;2.72;;;;;;;28.14;34.08;95324.88;4974858;28;20201;-74
2022/07/19 10:53:56;;;;;;;3.72;2.65;;;;;;;28.09;34.06;95318.88;4974810;28;20197;-74
2022/07/19 10:56:38;;;;;;;5.38;2.70;;;;;;;28.29;34.81;95320.16;4974828;28;20287;-74
2022/07/19 10:59:07;;;;;;;3.03;2.72;;;;;;;28.49;33.93;95322.22;4974745;28;20197;-74
2022/07/19 11:01:35;;;;;;;3.08;2.60;;;;;;;28.69;33.68;95310.94;4974920;28;20576;-74
2022/07/19 11:04:24;;;;;;;3.85;2.67;;;;;;;28.59;32.76;95301.31;4974951;28;20323;-73
2022/07/19 11:06:52;;;;;;;3.72;2.80;;;;;;;28.53;33.95;95305.25;4974839;28;20223;-73
2022/07/19 11:09:20;;;;;;;8.80;2.42;;;;;;;28.73;33.56;95303.06;4970036;28;20268;-73
2022/07/19 11:11:47;;;;;;;5.70;2.90;;;;;;;28.99;33.40;95301.13;4972525;28;20205;-73
2022/07/19 11:14:14;;;;;;;2.70;2.50;;;;;;;29.25;32.41;95286.63;4974898;28;20205;-73
2022/07/19 11:16:41;;;;;;;4.10;2.60;;;;;;;29.38;32.29;95290.19;4961520;28;20245;-73
2022/07/19 11:19:10;;;;;;;4.45;2.45;;;;;;;29.13;33.14;95302.53;4974641;28;20201;-73
2022/07/19 11:21:37;;;;;;;3.70;2.80;;;;;;;29.22;32.91;95291.78;4965435;28;20208;-73
2022/07/19 11:24:05;;;;;;;3.85;2.75;;;;;;;29.17;33.24;95292.75;4968002;28;20695;-73
2022/07/19 11:26:38;;;;;;;3.25;2.80;;;;;;;29.07;33.13;95294.97;4974044;28;20196;-75
2022/07/19 11:29:05;;;;;;;3.95;2.63;;;;;;;28.73;33.29;95293.16;4974086;28;20623;-72
2022/07/19 11:31:33;;;;;;;7.18;2.60;;;;;;;28.61;33.11;95296.44;4963955;28;20209;-73
2022/07/19 11:34:01;;;;;;;3.00;2.70;;;;;;;28.58;33.89;95296.25;4955126;28;20726;-74
2022/07/19 11:36:29;;;;;;;4.93;2.80;;;;;;;28.56;33.88;95293.13;4954720;28;20292;-74
2022/07/19 11:39:00;;;;;;;5.63;2.95;;;;;;;28.39;34.00;95293.13;4966353;28;20291;-73